sensor_id;sensor_type;location;lat;lon;timestamp;pressure;altitude;pressure_sealevel;temperature;humidity
64292;BME280;50628;51.008;13.658;2022-12-04T00:04:39;99968.75;;;1.61;100.00
64292;BME280;50628;51.008;13.658;2022-12-04T00:09:40;99972.75;;;1.46;100.00
64292;BME280;50628;51.008;13.658;2022-12-04T00:14:44;99972.59;;;1.50;100.00
64292;BME280;50628;51.008;13.658;2022-12-04T00:19:46;99964.25;;;1.45;100.00
64292;BME280;50628;51.008;13.658;2022-12-04T00:24:47;99965.50;;;1.57;100.00
64292;BME280;50628;51.008;13.658;2022-12-04T00:29:51;99963.56;;;1.62;100.00
64292;BME280;50628;51.008;13.658;2022-12-04T00:34:52;99959.09;;;1.88;100.00
64292;BME280;50628;51.008;13.658;2022-12-04T00:39:54;99959.69;;;1.74;100.00
64292;BME280;50628;51.008;13.658;2022-12-04T00:44:57;99957.13;;;1.74;100.00
64292;BME280;50628;51.008;13.658;2022-12-04T00:49:59;99956.09;;;1.78;100.00
64292;BME280;50628;51.008;13.658;2022-12-04T00:55:01;99961.88;;;1.61;100.00
64292;BME280;50628;51.008;13.658;2022-12-04T01:00:06;99953.09;;;1.46;100.00
64292;BME280;50628;51.008;13.658;2022-12-04T01:05:08;99955.59;;;1.26;100.00
64292;BME280;50628;51.008;13.658;2022-12-04T01:10:12;99950.75;;;1.40;100.00
64292;BME280;50628;51.008;13.658;2022-12-04T01:15:15;99950.44;;;1.70;100.00
64292;BME280;50628;51.008;13.658;2022-12-04T01:20:17;99942.19;;;1.41;100.00
64292;BME280;50628;51.008;13.658;2022-12-04T01:25:19;99943.25;;;1.36;100.00
64292;BME280;50628;51.008;13.658;2022-12-04T01:30:22;99937.06;;;1.41;100.00
64292;BME280;50628;51.008;13.658;2022-12-04T01:35:24;99945.22;;;1.29;100.00
64292;BME280;50628;51.008;13.658;2022-12-04T01:40:26;99928.94;;;1.30;100.00
64292;BME280;50628;51.008;13.658;2022-12-04T01:45:39;99922.47;;;1.21;100.00
64292;BME280;50628;51.008;13.658;2022-12-04T01:50:42;99911.16;;;1.25;100.00
64292;BME280;50628;51.008;13.658;2022-12-04T01:55:45;99905.63;;;1.36;100.00
64292;BME280;50628;51.008;13.658;2022-12-04T02:00:51;99898.72;;;1.16;100.00
64292;BME280;50628;51.008;13.658;2022-12-04T02:05:55;99901.25;;;1.38;100.00
64292;BME280;50628;51.008;13.658;2022-12-04T02:11:09;99886.56;;;1.21;100.00
64292;BME280;50628;51.008;13.658;2022-12-04T02:16:18;99880.28;;;1.28;100.00
64292;BME280;50628;51.008;13.658;2022-12-04T02:21:28;99883.13;;;1.43;100.00
64292;BME280;50628;51.008;13.658;2022-12-04T02:26:46;99889.00;;;1.67;100.00
64292;BME280;50628;51.008;13.658;2022-12-04T02:32:04;99879.41;;;1.50;100.00
64292;BME280;50628;51.008;13.658;2022-12-04T02:37:12;99872.34;;;1.55;100.00
64292;BME280;50628;51.008;13.658;2022-12-04T02:42:18;99880.00;;;1.77;100.00
64292;BME280;50628;51.008;13.658;2022-12-04T02:47:25;99885.06;;;1.99;100.00
64292;BME280;50628;51.008;13.658;2022-12-04T02:52:30;99889.00;;;2.06;100.00
64292;BME280;50628;51.008;13.658;2022-12-04T02:57:35;99880.34;;;2.09;100.00
64292;BME280;50628;51.008;13.658;2022-12-04T03:02:45;99871.00;;;2.08;100.00
64292;BME280;50628;51.008;13.658;2022-12-04T03:07:51;99863.00;;;1.75;100.00
64292;BME280;50628;51.008;13.658;2022-12-04T03:12:56;99863.13;;;1.92;100.00
64292;BME280;50628;51.008;13.658;2022-12-04T03:18:04;99851.13;;;1.72;100.00
64292;BME280;50628;51.008;13.658;2022-12-04T03:23:11;99865.50;;;1.56;100.00
64292;BME280;50628;51.008;13.658;2022-12-04T03:28:21;99878.50;;;1.51;100.00
64292;BME280;50628;51.008;13.658;2022-12-04T03:33:30;99871.78;;;1.48;100.00
64292;BME280;50628;51.008;13.658;2022-12-04T03:38:40;99879.59;;;1.45;100.00
64292;BME280;50628;51.008;13.658;2022-12-04T03:43:47;99868.97;;;1.75;100.00
64292;BME280;50628;51.008;13.658;2022-12-04T03:48:56;99873.75;;;2.03;100.00
64292;BME280;50628;51.008;13.658;2022-12-04T03:54:04;99867.50;;;2.09;100.00
64292;BME280;50628;51.008;13.658;2022-12-04T03:59:11;99872.59;;;2.10;100.00
64292;BME280;50628;51.008;13.658;2022-12-04T04:04:20;99875.44;;;1.84;100.00
64292;BME280;50628;51.008;13.658;2022-12-04T04:09:25;99873.31;;;1.73;100.00
64292;BME280;50628;51.008;13.658;2022-12-04T04:14:33;99874.84;;;1.98;100.00
64292;BME280;50628;51.008;13.658;2022-12-04T04:19:58;99879.34;;;1.92;100.00
64292;BME280;50628;51.008;13.658;2022-12-04T04:25:20;99875.25;;;1.68;100.00
64292;BME280;50628;51.008;13.658;2022-12-04T04:30:26;99883.59;;;1.52;100.00
64292;BME280;50628;51.008;13.658;2022-12-04T04:35:38;99886.16;;;1.73;100.00
64292;BME280;50628;51.008;13.658;2022-12-04T04:40:45;99870.28;;;1.84;100.00
64292;BME280;50628;51.008;13.658;2022-12-04T04:45:53;99870.09;;;1.88;100.00
64292;BME280;50628;51.008;13.658;2022-12-04T04:51:01;99869.91;;;1.93;100.00
64292;BME280;50628;51.008;13.658;2022-12-04T04:56:05;99861.53;;;1.89;100.00
64292;BME280;50628;51.008;13.658;2022-12-04T05:01:09;99862.78;;;2.00;100.00
64292;BME280;50628;51.008;13.658;2022-12-04T05:06:13;99868.13;;;1.95;100.00
64292;BME280;50628;51.008;13.658;2022-12-04T05:11:15;99868.81;;;1.99;100.00
64292;BME280;50628;51.008;13.658;2022-12-04T05:16:17;99860.25;;;1.79;100.00
64292;BME280;50628;51.008;13.658;2022-12-04T05:21:21;99862.03;;;1.77;100.00
64292;BME280;50628;51.008;13.658;2022-12-04T05:26:23;99866.53;;;1.92;100.00
64292;BME280;50628;51.008;13.658;2022-12-04T05:31:25;99861.84;;;1.61;100.00
64292;BME280;50628;51.008;13.658;2022-12-04T05:36:28;99856.50;;;1.66;100.00
64292;BME280;50628;51.008;13.658;2022-12-04T05:41:30;99853.75;;;1.70;100.00
64292;BME280;50628;51.008;13.658;2022-12-04T05:46:31;99854.25;;;1.79;100.00
64292;BME280;50628;51.008;13.658;2022-12-04T05:51:35;99849.97;;;2.00;100.00
64292;BME280;50628;51.008;13.658;2022-12-04T05:56:36;99855.97;;;1.99;100.00
64292;BME280;50628;51.008;13.658;2022-12-04T06:01:38;99848.66;;;2.10;100.00
64292;BME280;50628;51.008;13.658;2022-12-04T06:06:42;99836.72;;;2.28;100.00
64292;BME280;50628;51.008;13.658;2022-12-04T06:11:44;99844.22;;;2.32;100.00
64292;BME280;50628;51.008;13.658;2022-12-04T06:16:45;99840.91;;;2.30;100.00
64292;BME280;50628;51.008;13.658;2022-12-04T06:21:50;99844.41;;;2.47;100.00
64292;BME280;50628;51.008;13.658;2022-12-04T06:26:55;99845.75;;;2.36;100.00
64292;BME280;50628;51.008;13.658;2022-12-04T06:31:57;99860.28;;;2.37;100.00
64292;BME280;50628;51.008;13.658;2022-12-04T06:37:00;99859.00;;;2.27;100.00
64292;BME280;50628;51.008;13.658;2022-12-04T06:42:02;99859.69;;;2.31;100.00
64292;BME280;50628;51.008;13.658;2022-12-04T06:47:04;99854.84;;;2.44;100.00
64292;BME280;50628;51.008;13.658;2022-12-04T06:52:07;99860.69;;;2.47;100.00
64292;BME280;50628;51.008;13.658;2022-12-04T06:57:09;99866.84;;;2.43;100.00
64292;BME280;50628;51.008;13.658;2022-12-04T07:02:10;99869.91;;;2.51;100.00
64292;BME280;50628;51.008;13.658;2022-12-04T07:07:14;99858.66;;;2.54;100.00
64292;BME280;50628;51.008;13.658;2022-12-04T07:12:15;99861.63;;;2.07;100.00
64292;BME280;50628;51.008;13.658;2022-12-04T07:17:17;99863.25;;;2.28;100.00
64292;BME280;50628;51.008;13.658;2022-12-04T07:22:20;99862.53;;;2.44;100.00
64292;BME280;50628;51.008;13.658;2022-12-04T07:27:22;99867.50;;;2.29;100.00
64292;BME280;50628;51.008;13.658;2022-12-04T07:32:24;99863.66;;;2.57;100.00
64292;BME280;50628;51.008;13.658;2022-12-04T07:37:27;99874.06;;;2.54;100.00
64292;BME280;50628;51.008;13.658;2022-12-04T07:42:29;99868.53;;;2.63;100.00
64292;BME280;50628;51.008;13.658;2022-12-04T07:47:30;99865.75;;;2.49;100.00
64292;BME280;50628;51.008;13.658;2022-12-04T07:52:36;99867.19;;;2.73;100.00
64292;BME280;50628;51.008;13.658;2022-12-04T07:57:38;99855.03;;;2.77;100.00
64292;BME280;50628;51.008;13.658;2022-12-04T08:02:40;99859.34;;;2.76;100.00
64292;BME280;50628;51.008;13.658;2022-12-04T08:07:43;99857.31;;;2.83;100.00
64292;BME280;50628;51.008;13.658;2022-12-04T08:12:45;99850.13;;;2.72;100.00
64292;BME280;50628;51.008;13.658;2022-12-04T08:17:47;99855.38;;;2.88;100.00
64292;BME280;50628;51.008;13.658;2022-12-04T08:22:50;99860.72;;;3.02;100.00
64292;BME280;50628;51.008;13.658;2022-12-04T08:27:52;99863.50;;;2.98;100.00
64292;BME280;50628;51.008;13.658;2022-12-04T08:32:53;99859.47;;;3.10;100.00
64292;BME280;50628;51.008;13.658;2022-12-04T08:37:56;99859.88;;;3.19;100.00
64292;BME280;50628;51.008;13.658;2022-12-04T08:42:58;99866.28;;;2.93;100.00
64292;BME280;50628;51.008;13.658;2022-12-04T08:48:00;99856.25;;;2.87;100.00
64292;BME280;50628;51.008;13.658;2022-12-04T08:53:03;99861.16;;;3.11;100.00
64292;BME280;50628;51.008;13.658;2022-12-04T08:58:05;99864.78;;;3.07;100.00
64292;BME280;50628;51.008;13.658;2022-12-04T09:03:08;99855.22;;;3.28;100.00
64292;BME280;50628;51.008;13.658;2022-12-04T09:08:11;99850.25;;;3.06;100.00
64292;BME280;50628;51.008;13.658;2022-12-04T09:13:13;99847.19;;;3.34;100.00
64292;BME280;50628;51.008;13.658;2022-12-04T09:18:15;99852.19;;;3.37;100.00
64292;BME280;50628;51.008;13.658;2022-12-04T09:23:18;99837.66;;;3.53;100.00
64292;BME280;50628;51.008;13.658;2022-12-04T09:28:20;99838.72;;;3.49;100.00
64292;BME280;50628;51.008;13.658;2022-12-04T09:33:22;99861.09;;;3.47;100.00
64292;BME280;50628;51.008;13.658;2022-12-04T09:38:26;99858.25;;;3.53;100.00
64292;BME280;50628;51.008;13.658;2022-12-04T09:43:31;99860.44;;;3.43;100.00
64292;BME280;50628;51.008;13.658;2022-12-04T09:48:38;99855.41;;;3.58;100.00
64292;BME280;50628;51.008;13.658;2022-12-04T09:53:45;99841.72;;;3.57;100.00
64292;BME280;50628;51.008;13.658;2022-12-04T09:58:51;99849.16;;;3.63;100.00
64292;BME280;50628;51.008;13.658;2022-12-04T10:03:54;99840.44;;;3.66;100.00
64292;BME280;50628;51.008;13.658;2022-12-04T10:09:02;99830.91;;;3.68;100.00
64292;BME280;50628;51.008;13.658;2022-12-04T10:14:43;99827.41;;;3.69;100.00
64292;BME280;50628;51.008;13.658;2022-12-04T10:19:54;99828.66;;;3.78;100.00
64292;BME280;50628;51.008;13.658;2022-12-04T10:25:04;99823.59;;;3.94;100.00
64292;BME280;50628;51.008;13.658;2022-12-04T10:30:15;99825.47;;;3.90;100.00
64292;BME280;50628;51.008;13.658;2022-12-04T10:35:21;99820.28;;;3.74;100.00
64292;BME280;50628;51.008;13.658;2022-12-04T10:40:30;99816.75;;;3.93;100.00
64292;BME280;50628;51.008;13.658;2022-12-04T10:45:33;99808.78;;;3.97;100.00
64292;BME280;50628;51.008;13.658;2022-12-04T10:50:35;99802.75;;;3.98;100.00
64292;BME280;50628;51.008;13.658;2022-12-04T10:55:38;99798.25;;;4.02;100.00
64292;BME280;50628;51.008;13.658;2022-12-04T11:00:40;99802.59;;;4.17;100.00
64292;BME280;50628;51.008;13.658;2022-12-04T11:05:44;99812.06;;;4.17;100.00
64292;BME280;50628;51.008;13.658;2022-12-04T11:10:55;99811.09;;;4.19;100.00
64292;BME280;50628;51.008;13.658;2022-12-04T11:15:58;99822.72;;;4.26;100.00
64292;BME280;50628;51.008;13.658;2022-12-04T11:21:02;99810.25;;;4.34;100.00
64292;BME280;50628;51.008;13.658;2022-12-04T11:26:07;99808.78;;;4.46;100.00
64292;BME280;50628;51.008;13.658;2022-12-04T11:31:15;99805.03;;;4.52;100.00
64292;BME280;50628;51.008;13.658;2022-12-04T11:36:20;99801.88;;;4.47;100.00
64292;BME280;50628;51.008;13.658;2022-12-04T11:41:27;99814.66;;;4.64;100.00
64292;BME280;50628;51.008;13.658;2022-12-04T11:46:31;99803.84;;;4.73;100.00
64292;BME280;50628;51.008;13.658;2022-12-04T11:51:43;99800.09;;;4.63;100.00
64292;BME280;50628;51.008;13.658;2022-12-04T11:56:57;99799.53;;;4.74;100.00
64292;BME280;50628;51.008;13.658;2022-12-04T12:02:27;99791.63;;;4.77;100.00
64292;BME280;50628;51.008;13.658;2022-12-04T12:07:37;99777.50;;;4.98;100.00
64292;BME280;50628;51.008;13.658;2022-12-04T12:12:51;99770.75;;;4.96;100.00
64292;BME280;50628;51.008;13.658;2022-12-04T12:18:10;99774.34;;;4.93;100.00
64292;BME280;50628;51.008;13.658;2022-12-04T12:23:38;99768.16;;;4.82;100.00
64292;BME280;50628;51.008;13.658;2022-12-04T12:29:06;99759.56;;;4.81;100.00
64292;BME280;50628;51.008;13.658;2022-12-04T12:34:14;99749.13;;;4.98;100.00
64292;BME280;50628;51.008;13.658;2022-12-04T12:39:19;99753.72;;;4.93;100.00
64292;BME280;50628;51.008;13.658;2022-12-04T12:44:30;99751.56;;;5.02;100.00
64292;BME280;50628;51.008;13.658;2022-12-04T12:49:38;99735.22;;;4.71;100.00
64292;BME280;50628;51.008;13.658;2022-12-04T12:54:45;99736.16;;;4.70;100.00
64292;BME280;50628;51.008;13.658;2022-12-04T12:59:52;99730.06;;;4.71;100.00
64292;BME280;50628;51.008;13.658;2022-12-04T13:04:58;99735.63;;;4.79;100.00
64292;BME280;50628;51.008;13.658;2022-12-04T13:10:05;99727.34;;;4.88;100.00
64292;BME280;50628;51.008;13.658;2022-12-04T13:15:14;99721.31;;;4.89;100.00
64292;BME280;50628;51.008;13.658;2022-12-04T13:20:21;99713.69;;;5.02;100.00
64292;BME280;50628;51.008;13.658;2022-12-04T13:25:35;99716.56;;;5.12;100.00
64292;BME280;50628;51.008;13.658;2022-12-04T13:30:46;99701.34;;;5.21;100.00
64292;BME280;50628;51.008;13.658;2022-12-04T13:36:10;99712.50;;;5.36;100.00
64292;BME280;50628;51.008;13.658;2022-12-04T13:41:19;99726.19;;;5.53;100.00
64292;BME280;50628;51.008;13.658;2022-12-04T13:46:27;99714.00;;;5.55;100.00
64292;BME280;50628;51.008;13.658;2022-12-04T13:51:35;99708.59;;;5.59;100.00
64292;BME280;50628;51.008;13.658;2022-12-04T13:56:38;99701.06;;;5.69;100.00
64292;BME280;50628;51.008;13.658;2022-12-04T14:01:45;99712.41;;;5.81;100.00
64292;BME280;50628;51.008;13.658;2022-12-04T14:06:49;99719.22;;;5.82;100.00
64292;BME280;50628;51.008;13.658;2022-12-04T14:11:56;99719.44;;;5.79;100.00
64292;BME280;50628;51.008;13.658;2022-12-04T14:17:03;99726.28;;;5.80;100.00
64292;BME280;50628;51.008;13.658;2022-12-04T14:22:23;99724.31;;;5.69;100.00
64292;BME280;50628;51.008;13.658;2022-12-04T14:27:32;99730.88;;;5.60;100.00
64292;BME280;50628;51.008;13.658;2022-12-04T14:32:39;99722.50;;;5.57;100.00
64292;BME280;50628;51.008;13.658;2022-12-04T14:37:50;99721.84;;;5.68;100.00
64292;BME280;50628;51.008;13.658;2022-12-04T14:42:53;99720.28;;;5.65;100.00
64292;BME280;50628;51.008;13.658;2022-12-04T14:48:08;99712.72;;;5.62;100.00
64292;BME280;50628;51.008;13.658;2022-12-04T14:53:23;99712.25;;;5.70;100.00
64292;BME280;50628;51.008;13.658;2022-12-04T14:58:29;99709.28;;;5.76;100.00
64292;BME280;50628;51.008;13.658;2022-12-04T15:03:42;99698.41;;;5.85;100.00
64292;BME280;50628;51.008;13.658;2022-12-04T15:08:48;99691.19;;;5.90;100.00
64292;BME280;50628;51.008;13.658;2022-12-04T15:13:50;99685.84;;;5.79;100.00
64292;BME280;50628;51.008;13.658;2022-12-04T15:18:54;99686.50;;;5.97;100.00
64292;BME280;50628;51.008;13.658;2022-12-04T15:23:57;99692.41;;;5.99;100.00
64292;BME280;50628;51.008;13.658;2022-12-04T15:29:00;99679.69;;;5.96;100.00
64292;BME280;50628;51.008;13.658;2022-12-04T15:34:08;99678.16;;;5.64;100.00
64292;BME280;50628;51.008;13.658;2022-12-04T15:39:18;99679.44;;;5.57;100.00
64292;BME280;50628;51.008;13.658;2022-12-04T15:44:23;99684.75;;;5.69;100.00
64292;BME280;50628;51.008;13.658;2022-12-04T15:49:27;99674.34;;;5.70;100.00
64292;BME280;50628;51.008;13.658;2022-12-04T15:54:29;99675.91;;;5.73;100.00
64292;BME280;50628;51.008;13.658;2022-12-04T15:59:33;99671.59;;;5.59;100.00
64292;BME280;50628;51.008;13.658;2022-12-04T16:04:37;99668.19;;;5.44;100.00
64292;BME280;50628;51.008;13.658;2022-12-04T16:09:50;99665.78;;;5.41;100.00
64292;BME280;50628;51.008;13.658;2022-12-04T16:14:53;99682.56;;;5.48;100.00
64292;BME280;50628;51.008;13.658;2022-12-04T16:19:56;99680.06;;;5.61;100.00
64292;BME280;50628;51.008;13.658;2022-12-04T16:24:59;99676.94;;;5.70;100.00
64292;BME280;50628;51.008;13.658;2022-12-04T16:30:01;99672.63;;;5.42;100.00
64292;BME280;50628;51.008;13.658;2022-12-04T16:35:05;99677.88;;;5.12;100.00
64292;BME280;50628;51.008;13.658;2022-12-04T16:40:08;99670.38;;;5.07;100.00
64292;BME280;50628;51.008;13.658;2022-12-04T16:45:21;99671.03;;;5.11;100.00
64292;BME280;50628;51.008;13.658;2022-12-04T16:50:26;99670.69;;;5.17;100.00
64292;BME280;50628;51.008;13.658;2022-12-04T16:55:31;99666.91;;;5.23;100.00
64292;BME280;50628;51.008;13.658;2022-12-04T17:00:33;99676.84;;;5.14;100.00
64292;BME280;50628;51.008;13.658;2022-12-04T17:05:37;99665.97;;;5.09;100.00
64292;BME280;50628;51.008;13.658;2022-12-04T17:10:39;99672.81;;;5.25;100.00
64292;BME280;50628;51.008;13.658;2022-12-04T17:15:40;99662.94;;;5.17;100.00
64292;BME280;50628;51.008;13.658;2022-12-04T17:20:44;99664.78;;;5.15;100.00
64292;BME280;50628;51.008;13.658;2022-12-04T17:25:46;99655.91;;;5.19;100.00
64292;BME280;50628;51.008;13.658;2022-12-04T17:30:47;99656.78;;;5.19;100.00
64292;BME280;50628;51.008;13.658;2022-12-04T17:35:51;99664.25;;;5.24;100.00
64292;BME280;50628;51.008;13.658;2022-12-04T17:40:58;99662.47;;;5.25;100.00
64292;BME280;50628;51.008;13.658;2022-12-04T17:46:01;99656.03;;;5.17;100.00
64292;BME280;50628;51.008;13.658;2022-12-04T17:51:07;99661.00;;;5.20;100.00
64292;BME280;50628;51.008;13.658;2022-12-04T17:56:10;99659.81;;;5.40;100.00
64292;BME280;50628;51.008;13.658;2022-12-04T18:01:15;99657.31;;;5.53;100.00
64292;BME280;50628;51.008;13.658;2022-12-04T18:06:19;99649.81;;;5.63;100.00
64292;BME280;50628;51.008;13.658;2022-12-04T18:11:23;99649.63;;;5.80;100.00
64292;BME280;50628;51.008;13.658;2022-12-04T18:16:26;99644.81;;;5.74;100.00
64292;BME280;50628;51.008;13.658;2022-12-04T18:21:31;99641.53;;;5.72;100.00
64292;BME280;50628;51.008;13.658;2022-12-04T18:26:34;99639.66;;;5.74;100.00
64292;BME280;50628;51.008;13.658;2022-12-04T18:31:37;99641.94;;;5.79;100.00
64292;BME280;50628;51.008;13.658;2022-12-04T18:36:40;99635.69;;;5.83;100.00
64292;BME280;50628;51.008;13.658;2022-12-04T18:41:45;99640.44;;;5.89;100.00
64292;BME280;50628;51.008;13.658;2022-12-04T18:46:47;99640.28;;;5.92;100.00
64292;BME280;50628;51.008;13.658;2022-12-04T18:51:51;99629.28;;;5.89;100.00
64292;BME280;50628;51.008;13.658;2022-12-04T18:56:52;99632.69;;;5.89;100.00
64292;BME280;50628;51.008;13.658;2022-12-04T19:01:54;99634.25;;;5.92;100.00
64292;BME280;50628;51.008;13.658;2022-12-04T19:06:58;99639.28;;;5.95;100.00
64292;BME280;50628;51.008;13.658;2022-12-04T19:11:59;99635.03;;;5.94;100.00
64292;BME280;50628;51.008;13.658;2022-12-04T19:17:01;99633.72;;;6.01;100.00
64292;BME280;50628;51.008;13.658;2022-12-04T19:22:04;99629.28;;;6.03;100.00
64292;BME280;50628;51.008;13.658;2022-12-04T19:27:06;99638.06;;;6.00;100.00
64292;BME280;50628;51.008;13.658;2022-12-04T19:32:11;99641.91;;;6.07;100.00
64292;BME280;50628;51.008;13.658;2022-12-04T19:37:14;99635.53;;;6.13;100.00
64292;BME280;50628;51.008;13.658;2022-12-04T19:42:16;99634.16;;;6.07;100.00
64292;BME280;50628;51.008;13.658;2022-12-04T19:47:18;99633.75;;;6.14;100.00
64292;BME280;50628;51.008;13.658;2022-12-04T19:52:21;99637.09;;;6.16;100.00
64292;BME280;50628;51.008;13.658;2022-12-04T19:57:23;99624.78;;;6.19;100.00
64292;BME280;50628;51.008;13.658;2022-12-04T20:02:24;99627.47;;;6.18;100.00
64292;BME280;50628;51.008;13.658;2022-12-04T20:07:27;99628.31;;;6.18;100.00
64292;BME280;50628;51.008;13.658;2022-12-04T20:12:29;99633.03;;;6.12;100.00
64292;BME280;50628;51.008;13.658;2022-12-04T20:17:31;99631.25;;;6.12;100.00
64292;BME280;50628;51.008;13.658;2022-12-04T20:22:34;99641.50;;;6.14;100.00
64292;BME280;50628;51.008;13.658;2022-12-04T20:27:36;99631.59;;;6.07;100.00
64292;BME280;50628;51.008;13.658;2022-12-04T20:32:38;99625.13;;;6.27;100.00
64292;BME280;50628;51.008;13.658;2022-12-04T20:37:41;99630.16;;;6.16;100.00
64292;BME280;50628;51.008;13.658;2022-12-04T20:42:43;99626.47;;;6.20;100.00
64292;BME280;50628;51.008;13.658;2022-12-04T20:47:45;99623.47;;;6.26;100.00
64292;BME280;50628;51.008;13.658;2022-12-04T20:52:48;99624.91;;;6.18;100.00
64292;BME280;50628;51.008;13.658;2022-12-04T20:57:50;99620.03;;;6.13;100.00
64292;BME280;50628;51.008;13.658;2022-12-04T21:02:52;99610.91;;;6.07;100.00
64292;BME280;50628;51.008;13.658;2022-12-04T21:07:55;99615.88;;;6.11;100.00
64292;BME280;50628;51.008;13.658;2022-12-04T21:12:57;99611.97;;;6.18;100.00
64292;BME280;50628;51.008;13.658;2022-12-04T21:18:24;99607.47;;;6.07;100.00
64292;BME280;50628;51.008;13.658;2022-12-04T21:23:27;99605.38;;;5.99;100.00
64292;BME280;50628;51.008;13.658;2022-12-04T21:28:29;99605.03;;;5.91;100.00
64292;BME280;50628;51.008;13.658;2022-12-04T21:33:32;99609.66;;;5.86;100.00
64292;BME280;50628;51.008;13.658;2022-12-04T21:38:37;99609.66;;;5.86;100.00
64292;BME280;50628;51.008;13.658;2022-12-04T21:43:39;99591.28;;;5.91;100.00
64292;BME280;50628;51.008;13.658;2022-12-04T21:48:41;99583.38;;;5.79;100.00
64292;BME280;50628;51.008;13.658;2022-12-04T21:53:44;99585.78;;;5.82;100.00
64292;BME280;50628;51.008;13.658;2022-12-04T21:58:46;99590.94;;;5.82;100.00
64292;BME280;50628;51.008;13.658;2022-12-04T22:03:49;99589.63;;;5.90;100.00
64292;BME280;50628;51.008;13.658;2022-12-04T22:08:53;99590.63;;;5.87;100.00
64292;BME280;50628;51.008;13.658;2022-12-04T22:13:55;99595.91;;;5.85;100.00
64292;BME280;50628;51.008;13.658;2022-12-04T22:18:58;99586.84;;;5.93;100.00
64292;BME280;50628;51.008;13.658;2022-12-04T22:24:02;99601.25;;;5.97;100.00
64292;BME280;50628;51.008;13.658;2022-12-04T22:29:04;99588.31;;;5.97;100.00
64292;BME280;50628;51.008;13.658;2022-12-04T22:34:06;99583.38;;;5.94;100.00
64292;BME280;50628;51.008;13.658;2022-12-04T22:39:09;99585.66;;;5.98;100.00
64292;BME280;50628;51.008;13.658;2022-12-04T22:44:11;99591.75;;;5.97;100.00
64292;BME280;50628;51.008;13.658;2022-12-04T22:49:13;99591.59;;;6.13;100.00
64292;BME280;50628;51.008;13.658;2022-12-04T22:54:16;99595.91;;;6.00;100.00
64292;BME280;50628;51.008;13.658;2022-12-04T22:59:18;99598.09;;;6.06;100.00
64292;BME280;50628;51.008;13.658;2022-12-04T23:04:20;99584.63;;;6.01;100.00
64292;BME280;50628;51.008;13.658;2022-12-04T23:09:23;99593.66;;;6.08;100.00
64292;BME280;50628;51.008;13.658;2022-12-04T23:14:27;99583.31;;;6.08;100.00
64292;BME280;50628;51.008;13.658;2022-12-04T23:19:29;99577.13;;;6.11;100.00
64292;BME280;50628;51.008;13.658;2022-12-04T23:24:32;99583.06;;;5.98;100.00
64292;BME280;50628;51.008;13.658;2022-12-04T23:29:37;99583.06;;;5.98;100.00
64292;BME280;50628;51.008;13.658;2022-12-04T23:34:39;99586.78;;;5.94;100.00
64292;BME280;50628;51.008;13.658;2022-12-04T23:39:42;99587.50;;;5.96;100.00
64292;BME280;50628;51.008;13.658;2022-12-04T23:44:44;99594.81;;;5.90;100.00
64292;BME280;50628;51.008;13.658;2022-12-04T23:49:45;99593.53;;;5.82;100.00
64292;BME280;50628;51.008;13.658;2022-12-04T23:54:49;99592.03;;;5.93;100.00
64292;BME280;50628;51.008;13.658;2022-12-04T23:59:54;99600.13;;;6.01;100.00
